aviador You're here:

EYVI Decoded Metar

VILNIUS INTL in LITHUANIA
Report Time2017-09-26 12:20:00
UTC Time2017-09-26 12:46:33
Flight Rules vfr VFR
Wind120° at 07 kt
W.Decomp.*RWY 20: 0.5 kt HW 7 kt LCW
W.Rank120° ranks 27
Current wind is above 120° avg. (5.9)
Visibility9999 m
Phenomena:N/A
Clouds:N/A
Expected CloudBase > 3,600 ft AGL from Temp-Dew spread
CeilingNone
Temp18°C (ISA +4)
Dew Point09°C (56% RH)
AAT15.3°C
QNH1035 hPa
Density Alt571 ft
Elevation646 ft
Report Wrong Elevation
Raw Report
EYVI 261220Z 12007KT 080V160 CAVOK 18/09 Q1035 NOSIG=

Extra information for EYVI:More info

Metar Taf Metar & Taf Last 4 Metars F.Rules Stats Wind Profile Meteogram Temp Stats Airport Information Weather charts Add Link Nearby VenuesMetar ALERT Operation Metar Decoded Social comments